createdAt,value
2019-02-20T00:02:01.359Z,15.43
2019-02-20T00:04:29.940Z,18.27
2019-02-20T00:06:58.494Z,18.80
2019-02-20T00:09:27.007Z,15.67
2019-02-20T00:11:55.562Z,18.57
2019-02-20T00:14:24.071Z,15.33
2019-02-20T00:16:52.554Z,16.27
2019-02-20T00:19:21.076Z,18.33
2019-02-20T00:21:49.626Z,14.70
2019-02-20T00:24:18.226Z,15.40
2019-02-20T00:26:46.775Z,17.43
2019-02-20T00:29:15.369Z,17.20
2019-02-20T00:31:43.934Z,19.90
2019-02-20T00:34:12.523Z,15.70
2019-02-20T00:36:41.080Z,17.50
2019-02-20T00:39:10.232Z,17.43
2019-02-20T00:41:38.856Z,16.57
2019-02-20T00:44:11.839Z,17.70
2019-02-20T00:46:42.036Z,15.00
2019-02-20T00:49:12.194Z,16.60
2019-02-20T00:51:42.322Z,19.57
2019-02-20T00:54:10.922Z,17.53
2019-02-20T00:56:39.483Z,18.27
2019-02-20T00:59:08.073Z,18.67
2019-02-20T01:01:36.629Z,16.03
2019-02-20T01:04:05.531Z,16.57
2019-02-20T01:06:34.190Z,18.70
2019-02-20T01:09:03.015Z,18.40
2019-02-20T01:11:50.868Z,19.03
2019-02-20T01:14:19.448Z,17.67
2019-02-20T01:16:47.930Z,22.77
2019-02-20T01:19:16.410Z,18.07
2019-02-20T01:21:44.997Z,22.00
2019-02-20T01:24:13.649Z,17.83
2019-02-20T01:26:42.233Z,21.03
2019-02-20T01:29:10.794Z,17.30
2019-02-20T01:31:39.379Z,20.43
2019-02-20T01:34:07.935Z,20.50
2019-02-20T01:36:36.535Z,17.73
2019-02-20T01:39:06.263Z,23.37
2019-02-20T01:41:34.855Z,19.33
2019-02-20T01:44:03.484Z,17.90
2019-02-20T01:46:32.070Z,19.23
2019-02-20T01:49:00.572Z,18.67
2019-02-20T01:51:29.142Z,18.70
2019-02-20T01:53:57.618Z,20.13
2019-02-20T01:56:26.130Z,21.03
2019-02-20T01:58:54.619Z,18.57
2019-02-20T02:01:23.199Z,20.13
2019-02-20T02:03:51.763Z,19.10
2019-02-20T02:06:20.347Z,21.33
2019-02-20T02:08:48.975Z,17.97
2019-02-20T02:11:17.519Z,20.17
2019-02-20T02:13:46.078Z,21.37
2019-02-20T02:16:14.728Z,23.43
2019-02-20T02:18:43.206Z,21.87
2019-02-20T02:21:11.800Z,20.20
2019-02-20T02:23:40.371Z,19.60
2019-02-20T02:26:11.066Z,22.73
2019-02-20T02:28:39.222Z,19.77
2019-02-20T02:31:07.734Z,17.93
2019-02-20T02:33:36.264Z,21.93
2019-02-20T02:36:04.861Z,19.33
2019-02-20T02:38:33.411Z,22.30
2019-02-20T02:41:02.064Z,22.77
2019-02-20T02:43:30.620Z,19.07
2019-02-20T02:45:59.215Z,24.90
2019-02-20T02:48:27.771Z,23.93
2019-02-20T02:50:56.332Z,18.73
2019-02-20T02:53:30.707Z,23.83
2019-02-20T02:55:55.163Z,20.60
2019-02-20T02:58:23.747Z,20.03
2019-02-20T03:00:54.239Z,21.37
2019-02-20T03:03:22.546Z,21.90
2019-02-20T03:05:51.104Z,22.40
2019-02-20T03:08:19.691Z,25.37
2019-02-20T03:10:48.253Z,18.07
2019-02-20T03:13:16.849Z,26.13
2019-02-20T03:15:45.417Z,22.50
2019-02-20T03:18:14.002Z,22.77
2019-02-20T03:20:42.574Z,28.00
2019-02-20T03:23:11.155Z,22.73
2019-02-20T03:25:39.716Z,25.83
2019-02-20T03:28:08.299Z,26.67
2019-02-20T03:30:36.810Z,25.20
2019-02-20T03:33:05.436Z,20.43
2019-02-20T03:35:33.995Z,23.90
2019-02-20T03:38:02.587Z,27.07
2019-02-20T03:40:31.207Z,18.77
2019-02-20T03:42:59.791Z,22.90
2019-02-20T03:45:28.352Z,22.20
2019-02-20T03:47:56.960Z,22.50
2019-02-20T03:50:25.524Z,20.07
2019-02-20T03:52:54.107Z,23.20
2019-02-20T03:55:22.665Z,19.83
2019-02-20T03:57:51.255Z,23.77
2019-02-20T04:00:19.806Z,21.67
2019-02-20T04:02:48.397Z,24.73
2019-02-20T04:05:16.886Z,18.93
2019-02-20T04:07:45.473Z,24.20
2019-02-20T04:10:14.039Z,18.33
2019-02-20T04:12:42.628Z,22.27
2019-02-20T04:15:11.194Z,19.70
2019-02-20T04:17:39.785Z,23.03
2019-02-20T04:20:08.510Z,25.53
2019-02-20T04:22:37.121Z,23.63
2019-02-20T04:25:06.294Z,21.20
2019-02-20T04:27:34.876Z,19.37
2019-02-20T04:30:04.006Z,20.33
2019-02-20T04:32:32.597Z,20.13
2019-02-20T04:35:01.159Z,21.83
2019-02-20T04:37:29.748Z,18.73
2019-02-20T04:39:58.310Z,24.27
2019-02-20T04:42:26.899Z,23.43
2019-02-20T04:44:55.450Z,20.27
2019-02-20T04:47:24.043Z,24.23
2019-02-20T04:49:52.637Z,23.60
2019-02-20T04:52:21.227Z,19.73
2019-02-20T04:54:49.779Z,20.43
2019-02-20T04:57:18.376Z,21.97
2019-02-20T04:59:46.935Z,18.60
2019-02-20T05:02:15.519Z,22.30
2019-02-20T05:04:44.134Z,20.17
2019-02-20T05:07:12.719Z,23.17
2019-02-20T05:09:41.275Z,23.30
2019-02-20T05:12:09.874Z,28.67
2019-02-20T05:14:38.433Z,23.03
2019-02-20T05:17:07.024Z,28.50
2019-02-20T05:19:35.585Z,23.23
2019-02-20T05:22:04.165Z,20.03
2019-02-20T05:24:32.650Z,21.30
2019-02-20T05:27:01.238Z,26.37
2019-02-20T05:29:29.798Z,28.13
2019-02-20T05:31:58.481Z,27.37
2019-02-20T05:34:27.031Z,22.43
2019-02-20T05:36:55.601Z,22.10
2019-02-20T05:39:24.186Z,31.07
2019-02-20T05:41:52.815Z,21.50
2019-02-20T05:44:21.499Z,23.90
2019-02-20T05:46:50.052Z,21.00
2019-02-20T05:49:18.637Z,24.70
2019-02-20T05:51:47.216Z,24.40
2019-02-20T05:54:15.836Z,22.53
2019-02-20T05:56:44.466Z,24.60
2019-02-20T05:59:13.055Z,26.50
2019-02-20T06:01:41.616Z,22.83
2019-02-20T06:04:10.209Z,24.90
2019-02-20T06:06:38.771Z,24.10
2019-02-20T06:09:07.339Z,28.13
2019-02-20T06:11:35.907Z,24.63
2019-02-20T06:14:04.483Z,25.97
2019-02-20T06:16:33.058Z,24.53
2019-02-20T06:19:01.638Z,26.50
2019-02-20T06:21:30.204Z,24.37
2019-02-20T06:23:58.791Z,23.23
2019-02-20T06:26:27.343Z,21.67
2019-02-20T06:28:55.935Z,27.70
2019-02-20T06:31:24.503Z,21.17
2019-02-20T06:33:53.083Z,22.43
2019-02-20T06:36:21.644Z,24.40
2019-02-20T06:38:50.237Z,29.83
2019-02-20T06:41:18.799Z,23.30
2019-02-20T06:43:48.119Z,23.70
2019-02-20T06:46:16.740Z,28.67
2019-02-20T06:48:45.327Z,24.80
2019-02-20T06:51:13.926Z,29.57
2019-02-20T06:53:42.519Z,23.07
2019-02-20T06:56:11.083Z,26.73
2019-02-20T06:58:39.661Z,32.40
2019-02-20T07:01:08.168Z,27.20
2019-02-20T07:03:36.759Z,27.57
2019-02-20T07:06:25.388Z,26.07
2019-02-20T07:09:05.911Z,25.33
2019-02-20T07:11:46.371Z,24.03
2019-02-20T07:14:45.163Z,24.87
2019-02-20T07:17:28.390Z,29.97
2019-02-20T07:20:05.793Z,25.13
2019-02-20T07:22:54.153Z,28.17
2019-02-20T07:25:25.849Z,21.90
2019-02-20T07:27:57.581Z,22.87
2019-02-20T07:30:26.202Z,24.20
2019-02-20T07:32:54.761Z,28.93
2019-02-20T07:35:23.285Z,26.70
2019-02-20T07:37:51.833Z,25.47
2019-02-20T07:40:20.436Z,23.73
2019-02-20T07:42:48.981Z,24.23
2019-02-20T07:45:17.493Z,24.77
2019-02-20T07:47:46.059Z,26.97
2019-02-20T07:50:14.777Z,27.30
2019-02-20T07:52:43.344Z,26.20
2019-02-20T07:55:13.594Z,33.53
2019-02-20T07:57:42.222Z,31.53
2019-02-20T08:00:12.978Z,25.57
2019-02-20T08:02:41.631Z,25.73
2019-02-20T08:05:10.391Z,26.27
2019-02-20T08:07:38.957Z,25.60
2019-02-20T08:10:10.142Z,29.53
2019-02-20T08:12:38.621Z,27.13
2019-02-20T08:15:09.656Z,20.63
2019-02-20T08:17:38.207Z,23.77
2019-02-20T08:20:09.029Z,22.53
2019-02-20T08:22:37.590Z,27.93
2019-02-20T08:25:07.412Z,27.33
2019-02-20T08:27:35.973Z,22.50
2019-02-20T08:30:07.173Z,27.63
2019-02-20T08:32:35.738Z,23.50
2019-02-20T08:35:05.337Z,27.23
2019-02-20T08:37:33.896Z,23.30
2019-02-20T08:40:02.481Z,22.07
2019-02-20T08:42:31.067Z,18.13
2019-02-20T08:44:59.622Z,25.57
2019-02-20T08:47:28.247Z,23.23
2019-02-20T08:49:56.812Z,21.00
2019-02-20T08:52:25.391Z,22.50
2019-02-20T08:54:53.957Z,29.20
2019-02-20T08:57:22.541Z,26.13
2019-02-20T08:59:51.785Z,21.20
2019-02-20T09:02:20.489Z,24.40
2019-02-20T09:04:49.059Z,23.03
2019-02-20T09:07:17.646Z,28.20
2019-02-20T09:09:46.206Z,21.40
2019-02-20T09:12:14.800Z,23.53
2019-02-20T09:14:43.354Z,23.67
2019-02-20T09:17:11.947Z,25.77
2019-02-20T09:19:40.509Z,24.40
2019-02-20T09:22:09.103Z,24.43
2019-02-20T09:24:37.675Z,23.37
2019-02-20T09:27:06.289Z,22.67
2019-02-20T09:29:34.912Z,24.27
2019-02-20T09:32:03.455Z,28.27
2019-02-20T09:34:31.999Z,27.00
2019-02-20T09:37:00.589Z,29.27
2019-02-20T09:39:34.065Z,22.10
2019-02-20T09:42:02.903Z,24.60
2019-02-20T09:44:34.637Z,27.20
2019-02-20T09:47:03.233Z,30.23
2019-02-20T09:49:31.805Z,23.43
2019-02-20T09:52:00.474Z,21.33
2019-02-20T09:54:29.038Z,23.37
2019-02-20T09:56:57.620Z,21.43
2019-02-20T09:59:26.192Z,23.00
2019-02-20T10:01:54.769Z,24.57
2019-02-20T10:04:23.257Z,22.37
2019-02-20T10:06:51.841Z,25.13
2019-02-20T10:09:20.407Z,24.63
2019-02-20T10:11:49.794Z,21.63
2019-02-20T10:14:18.469Z,19.03
2019-02-20T10:16:47.057Z,19.20
2019-02-20T10:19:15.631Z,26.83
2019-02-20T10:21:44.210Z,22.23
2019-02-20T10:24:12.699Z,23.37
2019-02-20T10:26:41.295Z,20.00
2019-02-20T10:29:09.857Z,23.83
2019-02-20T10:31:38.466Z,21.30
2019-02-20T10:34:07.024Z,18.60
2019-02-20T10:36:35.617Z,24.43
2019-02-20T10:39:05.319Z,19.73
2019-02-20T10:41:33.907Z,19.27
2019-02-20T10:44:02.469Z,20.50
2019-02-20T10:46:31.069Z,19.00
2019-02-20T10:48:59.649Z,18.37
2019-02-20T10:51:28.178Z,17.87
2019-02-20T10:53:56.732Z,16.27
2019-02-20T10:56:25.323Z,18.47
2019-02-20T10:58:53.877Z,18.47
2019-02-20T11:01:22.397Z,17.30
2019-02-20T11:03:50.901Z,19.37
2019-02-20T11:06:19.499Z,18.87
2019-02-20T11:08:48.091Z,14.93
2019-02-20T11:11:16.711Z,16.40
2019-02-20T11:13:45.275Z,15.67
2019-02-20T11:16:13.869Z,16.60
2019-02-20T11:18:42.438Z,15.97
2019-02-20T11:21:11.025Z,13.93
2019-02-20T11:23:39.517Z,17.63
2019-02-20T11:26:17.421Z,18.10
2019-02-20T11:28:39.244Z,18.13
2019-02-20T11:31:07.907Z,15.50
2019-02-20T11:33:36.470Z,17.07
2019-02-20T11:36:05.135Z,11.90
2019-02-20T11:38:33.685Z,18.77
2019-02-20T11:41:02.286Z,14.07
2019-02-20T11:43:30.853Z,14.57
2019-02-20T11:45:59.527Z,14.80
2019-02-20T11:48:28.159Z,15.03
2019-02-20T11:50:56.757Z,14.43
2019-02-20T11:53:25.321Z,18.20
2019-02-20T11:55:53.913Z,14.87
2019-02-20T11:58:22.477Z,17.43
2019-02-20T12:00:50.978Z,15.77
2019-02-20T12:03:19.565Z,16.97
2019-02-20T12:05:48.067Z,13.77
2019-02-20T12:08:17.125Z,15.77
2019-02-20T12:10:45.771Z,13.37
2019-02-20T12:13:14.354Z,13.43
2019-02-20T12:15:42.988Z,11.93
2019-02-20T12:18:17.139Z,12.57
2019-02-20T12:20:41.863Z,13.87
2019-02-20T12:23:10.455Z,13.13
2019-02-20T12:25:39.013Z,11.50
2019-02-20T12:28:07.669Z,10.33
2019-02-20T12:30:38.108Z,12.57
2019-02-20T12:33:06.799Z,11.43
2019-02-20T12:35:35.361Z,12.67
2019-02-20T12:38:03.967Z,13.00
2019-02-20T12:40:32.525Z,13.23
2019-02-20T12:43:01.115Z,11.57
2019-02-20T12:45:29.678Z,11.17
2019-02-20T12:47:58.270Z,10.97
2019-02-20T12:50:26.829Z,9.90
2019-02-20T12:52:55.588Z,10.47
2019-02-20T12:55:24.142Z,12.67
2019-02-20T12:57:52.721Z,9.43
2019-02-20T13:00:22.825Z,9.67
2019-02-20T13:02:51.637Z,11.93
2019-02-20T13:05:20.266Z,12.83
2019-02-20T13:07:48.854Z,8.97
2019-02-20T13:10:17.407Z,12.73
2019-02-20T13:12:46.798Z,7.97
2019-02-20T13:15:15.703Z,11.03
2019-02-20T13:17:44.281Z,8.17
2019-02-20T13:20:12.920Z,9.43
2019-02-20T13:22:41.497Z,9.03
2019-02-20T13:25:10.825Z,11.23
2019-02-20T13:27:40.240Z,8.13
2019-02-20T13:30:11.679Z,8.43
2019-02-20T13:32:40.255Z,8.40
2019-02-20T13:35:08.946Z,8.37
2019-02-20T13:37:37.538Z,10.27
2019-02-20T13:40:09.134Z,10.10
2019-02-20T13:42:37.777Z,9.83
2019-02-20T13:45:07.675Z,8.80
2019-02-20T13:47:36.325Z,10.57
2019-02-20T13:50:07.625Z,13.07
2019-02-20T13:52:36.221Z,7.73
2019-02-20T13:55:06.318Z,10.63
2019-02-20T13:57:35.074Z,8.50
2019-02-20T14:00:04.363Z,10.13
2019-02-20T14:02:33.222Z,13.73
2019-02-20T14:05:01.785Z,9.07
2019-02-20T14:07:30.365Z,13.07
2019-02-20T14:09:59.235Z,9.33
2019-02-20T14:12:27.839Z,13.87
2019-02-20T14:14:56.398Z,11.93
2019-02-20T14:17:26.853Z,9.90
2019-02-20T14:19:55.190Z,8.17
2019-02-20T14:22:23.774Z,11.77
2019-02-20T14:24:52.330Z,13.03
2019-02-20T14:27:20.929Z,13.20
2019-02-20T14:29:49.478Z,13.77
2019-02-20T14:32:18.073Z,11.57
2019-02-20T14:34:46.625Z,14.03
2019-02-20T14:37:15.214Z,12.43
2019-02-20T14:39:43.875Z,11.97
2019-02-20T14:42:12.754Z,12.43
2019-02-20T14:44:41.332Z,14.03
2019-02-20T14:47:09.919Z,15.93
2019-02-20T14:49:38.480Z,12.70
2019-02-20T14:52:07.068Z,13.17
2019-02-20T14:54:35.626Z,16.50
2019-02-20T14:57:04.217Z,12.93
2019-02-20T14:59:33.441Z,12.87
2019-02-20T15:02:02.023Z,12.70
2019-02-20T15:04:30.578Z,14.10
2019-02-20T15:06:59.165Z,13.73
2019-02-20T15:09:27.736Z,14.07
2019-02-20T15:11:56.330Z,15.30
2019-02-20T15:14:24.901Z,10.70
2019-02-20T15:16:53.481Z,14.70
2019-02-20T15:19:22.114Z,10.50
2019-02-20T15:21:50.709Z,14.00
2019-02-20T15:24:19.265Z,16.83
2019-02-20T15:26:47.925Z,11.03
2019-02-20T15:29:16.474Z,15.23
2019-02-20T15:31:45.374Z,16.47
2019-02-20T15:34:13.952Z,11.90
2019-02-20T15:36:42.694Z,12.17
2019-02-20T15:39:11.494Z,10.53
2019-02-20T15:41:40.050Z,11.83
2019-02-20T15:44:08.702Z,15.07
2019-02-20T15:46:37.277Z,14.97
2019-02-20T15:49:06.268Z,15.53
2019-02-20T15:51:34.822Z,11.50
2019-02-20T15:54:03.440Z,11.73
2019-02-20T15:56:32.001Z,10.10
2019-02-20T15:59:01.265Z,14.37
2019-02-20T16:01:29.962Z,12.67
2019-02-20T16:03:58.558Z,13.47
2019-02-20T16:06:27.116Z,12.33
2019-02-20T16:08:55.710Z,11.40
2019-02-20T16:11:24.263Z,11.93
2019-02-20T16:13:52.870Z,12.70
2019-02-20T16:16:21.435Z,13.50
2019-02-20T16:18:50.022Z,15.73
2019-02-20T16:21:18.594Z,15.80
2019-02-20T16:23:47.174Z,13.60
2019-02-20T16:26:15.733Z,16.07
2019-02-20T16:28:44.418Z,18.73
2019-02-20T16:31:12.969Z,15.13
2019-02-20T16:33:41.627Z,12.87
2019-02-20T16:36:10.234Z,14.87
2019-02-20T16:38:39.026Z,13.40
2019-02-20T16:41:07.599Z,16.93
2019-02-20T16:43:36.186Z,16.03
2019-02-20T16:46:04.874Z,15.97
2019-02-20T16:48:33.462Z,14.33
2019-02-20T16:51:02.087Z,15.03
2019-02-20T16:53:30.670Z,13.13
2019-02-20T16:55:59.638Z,14.80
2019-02-20T16:58:28.229Z,16.10
2019-02-20T17:00:56.797Z,12.40
2019-02-20T17:03:25.494Z,16.43
2019-02-20T17:05:54.057Z,11.67
2019-02-20T17:08:22.786Z,11.30
2019-02-20T17:10:51.357Z,11.50
2019-02-20T17:13:19.948Z,10.43
2019-02-20T17:15:48.966Z,10.80
2019-02-20T17:18:17.546Z,16.80
2019-02-20T17:20:46.131Z,15.53
2019-02-20T17:23:14.842Z,15.07
2019-02-20T17:25:43.455Z,18.93
2019-02-20T17:28:12.322Z,18.73
2019-02-20T17:30:41.052Z,17.47
2019-02-20T17:33:09.606Z,18.47
2019-02-20T17:35:38.418Z,16.33
2019-02-20T17:38:07.046Z,18.43
2019-02-20T17:40:35.714Z,19.03
2019-02-20T17:43:04.338Z,14.70
2019-02-20T17:45:32.898Z,18.70
2019-02-20T17:48:01.485Z,17.70
2019-02-20T17:50:30.315Z,22.13
2019-02-20T17:52:58.906Z,26.83
2019-02-20T17:55:27.471Z,18.27
2019-02-20T17:57:56.057Z,18.83
2019-02-20T18:00:26.456Z,26.60
2019-02-20T18:02:55.054Z,18.80
2019-02-20T18:05:24.085Z,22.40
2019-02-20T18:07:52.797Z,18.50
2019-02-20T18:10:21.376Z,16.40
2019-02-20T18:12:49.958Z,23.80
2019-02-20T18:15:18.530Z,20.03
2019-02-20T18:17:47.114Z,15.00
2019-02-20T18:20:15.671Z,15.57
2019-02-20T18:22:44.230Z,17.43
2019-02-20T18:25:13.114Z,15.53
2019-02-20T18:27:41.668Z,12.90
2019-02-20T18:30:15.066Z,18.80
2019-02-20T18:32:43.789Z,17.83
2019-02-20T18:35:14.777Z,27.97
2019-02-20T18:37:43.493Z,20.60
2019-02-20T18:40:16.941Z,22.33
2019-02-20T18:42:45.474Z,25.13
2019-02-20T18:45:17.177Z,20.50
2019-02-20T18:47:45.849Z,20.60
2019-02-20T18:50:15.483Z,17.37
2019-02-20T18:52:44.027Z,14.90
2019-02-20T18:55:13.558Z,19.73
2019-02-20T18:57:42.107Z,16.40
2019-02-20T19:00:19.370Z,15.80
2019-02-20T19:02:48.000Z,12.03
2019-02-20T19:05:18.733Z,16.60
2019-02-20T19:07:47.109Z,16.40
2019-02-20T19:10:40.382Z,16.27
2019-02-20T19:13:20.824Z,15.70
2019-02-20T19:15:52.482Z,16.90
2019-02-20T19:18:39.111Z,11.17
2019-02-20T19:21:13.267Z,14.67
2019-02-20T19:24:20.999Z,14.17
2019-02-20T19:27:01.682Z,12.80
2019-02-20T19:29:50.237Z,14.97
2019-02-20T19:32:47.470Z,15.60
2019-02-20T19:35:19.234Z,14.47
2019-02-20T19:38:06.221Z,13.30
2019-02-20T19:40:32.932Z,14.53
2019-02-20T19:43:26.789Z,11.60
2019-02-20T19:46:00.278Z,20.03
2019-02-20T19:48:37.826Z,14.00
2019-02-20T19:51:36.650Z,15.30
2019-02-20T19:54:23.194Z,15.13
2019-02-20T19:57:11.747Z,14.57
2019-02-20T19:59:46.400Z,20.07
2019-02-20T20:02:27.848Z,15.97
2019-02-20T20:05:06.150Z,18.53
2019-02-20T20:07:52.770Z,15.30
2019-02-20T20:10:42.474Z,19.07
2019-02-20T20:13:26.209Z,18.73
2019-02-20T20:16:09.951Z,16.80
2019-02-20T20:18:44.150Z,17.50
2019-02-20T20:21:27.497Z,16.60
2019-02-20T20:24:15.895Z,17.17
2019-02-20T20:27:13.301Z,16.00
2019-02-20T20:30:07.755Z,15.53
2019-02-20T20:32:55.204Z,16.83
2019-02-20T20:35:41.554Z,17.93
2019-02-20T20:38:36.062Z,17.97
2019-02-20T20:41:25.675Z,20.17
2019-02-20T20:44:43.274Z,19.43
2019-02-20T20:47:25.226Z,18.10
2019-02-20T20:49:59.822Z,20.50
2019-02-20T20:52:46.636Z,20.13
2019-02-20T20:55:43.962Z,19.50
2019-02-20T20:58:24.427Z,17.47
2019-02-20T21:00:58.902Z,22.40
2019-02-20T21:03:30.126Z,17.93
2019-02-20T21:06:13.396Z,28.17
2019-02-20T21:08:47.706Z,19.33
2019-02-20T21:11:31.306Z,21.30
2019-02-20T21:14:25.727Z,22.83
2019-02-20T21:17:24.255Z,25.17
2019-02-20T21:20:15.778Z,22.33
2019-02-20T21:23:34.078Z,17.53
2019-02-20T21:26:11.142Z,16.30
2019-02-20T21:28:58.898Z,18.33
2019-02-20T21:31:42.301Z,20.67
2019-02-20T21:34:25.516Z,16.00
2019-02-20T21:37:12.198Z,14.60
2019-02-20T21:39:46.526Z,20.07
2019-02-20T21:42:26.990Z,19.17
2019-02-20T21:45:01.638Z,20.53
2019-02-20T21:47:52.714Z,26.23
2019-02-20T21:50:24.393Z,22.60
2019-02-20T21:53:13.954Z,16.53
2019-02-20T21:55:48.332Z,19.33
2019-02-20T21:58:23.062Z,18.83
2019-02-20T22:01:13.012Z,29.23
2019-02-20T22:03:59.478Z,19.37
2019-02-20T22:06:43.183Z,29.07
2019-02-20T22:09:23.825Z,23.23
2019-02-20T22:11:58.478Z,18.77
2019-02-20T22:14:41.858Z,26.60
2019-02-20T22:17:19.519Z,21.63
2019-02-20T22:20:12.523Z,22.80
2019-02-20T22:22:47.143Z,23.90
2019-02-20T22:25:33.819Z,19.63
2019-02-20T22:28:22.114Z,19.67
2019-02-20T22:31:16.451Z,23.63
2019-02-20T22:33:51.022Z,19.17
2019-02-20T22:36:45.234Z,24.53
2019-02-20T22:39:32.106Z,21.40
2019-02-20T22:42:21.982Z,15.90
2019-02-20T22:44:59.759Z,21.90
2019-02-20T22:48:06.678Z,16.80
2019-02-20T22:50:59.430Z,15.97
2019-02-20T22:53:42.914Z,19.90
2019-02-20T22:56:33.794Z,18.47
2019-02-20T22:59:05.507Z,15.10
2019-02-20T23:01:49.009Z,15.13
2019-02-20T23:04:20.676Z,21.10
2019-02-20T23:06:58.235Z,19.40
2019-02-20T23:09:41.922Z,15.20
2019-02-20T23:12:25.415Z,16.23
2019-02-20T23:14:58.046Z,15.90
2019-02-20T23:17:27.472Z,14.67
2019-02-20T23:19:56.474Z,25.07
2019-02-20T23:22:25.062Z,16.80
2019-02-20T23:24:53.610Z,15.40
2019-02-20T23:27:22.378Z,14.00
2019-02-20T23:29:50.942Z,17.53
2019-02-20T23:32:19.687Z,15.47
2019-02-20T23:34:48.243Z,13.20
2019-02-20T23:37:16.838Z,18.43
2019-02-20T23:39:45.400Z,17.70
2019-02-20T23:42:14.022Z,17.97
2019-02-20T23:44:42.534Z,17.80
2019-02-20T23:47:11.087Z,16.60
2019-02-20T23:49:39.670Z,15.73
2019-02-20T23:52:08.226Z,15.97
2019-02-20T23:54:36.891Z,16.43
2019-02-20T23:57:05.566Z,13.67
2019-02-20T23:59:34.236Z,17.17
